ADDS TAF Board (Experimental) INFO

IDs: Format: Expanded Condensed

Updated at: 0422 UTC 20 Dec 2014

KFLL - Ft Lauderdale-Hollyw, FL, US

Issued at 0258 UTC 20 Dec 2014
Time0353Z20/05Z20/06Z20/07Z20/08Z20/09Z20/10Z20/11Z20/12Z20/13Z20/14Z20/15Z20/16Z20/17Z
TypeOBSPRVLPRVLPRVLPRVLPRVLPRVLPRVLPRVLPRVLPRVLPRVLPRVLPRVL
VIS10>6>6>6>6>6>6>6>6>6>6>6>6>6
CIG--300300300300300300300300300--------
CoverSCTBKNBKNBKNBKNBKNBKNBKNBKNBKNSCTSCTSCTSCT
FltCat--VFRVFRVFRVFRVFRVFRVFRVFRVFRVFRVFRVFRVFR
WX----------------------------
WDir140130130130130130130130130130150150150150
WSpd85555555558888
WGst----------------------------
R10/28
XWnd-6-3-3-3-3-3-3-3-3-3-7-7-7-7
HWnd54444444444444
Raw TAF
KFLL 200258Z 2003/2024 13005KT P6SM FEW035 BKN300
  FM201400 15008KT P6SM SCT035


Raw METAR
KFLL 200353Z 14008KT 10SM FEW032 SCT300 21/15 A3007 RMK AO2 SLP182 T02060150

TAF Board Legend

Hazard VFR MVFR IFR LIFR
Visibility (sm) >5 3≤X≤5 1≤X<3 <1
Ceiling (100 ft) >30 10≤X≤30 5≤X<10 <5
Wind Speed (kt) <10 10≤X<20 20≤X<30 ≥30
Wind Gust (kt) <15 15≤X<25 25≤X<35 ≥35
Weather No Wx Reported VCTS,-TS,-FZRA TS,FZRA +TS,+FZRA


Page loaded:  04:22 UTC  |   08:22 PM Pacific  |   09:22 PM Mountain  |   10:22 PM Central  |   11:22 PM Eastern

 

ADVISORIES

FORECASTS

FORECASTS

OBSERVATIONS

USER TOOLS

ABOUT US